Time;durP1;ratioP1;P1;durP2;ratioP2;P2;SDS_P1;SDS_P2;PMS_P1;PMS_P2;Temp;Humidity;BMP_temperature;BMP_pressure;BME280_temperature;BME280_humidity;BME280_pressure;Samples;Min_cycle;Max_cycle;Signal;HPM_P1;HPM_P2
2023/12/24 00:00:37;;;;;;;31.73;10.43;;;;;;;;;;4978903;28;20054;-62
2023/12/24 00:03:05;;;;;;;24.73;9.80;;;;;;;;;;4977780;28;20654;-62
2023/12/24 00:05:32;;;;;;;21.80;7.13;;;;;;;;;;4984219;28;20160;-62
2023/12/24 00:08:06;;;;;;;17.67;6.87;;;;;;;;;;4978587;28;20539;-51
2023/12/24 00:10:33;;;;;;;12.60;5.33;;;;;;;;;;4978767;28;20576;-61
2023/12/24 00:13:07;;;;;;;7.33;3.70;;;;;;;;;;4981064;28;20269;-60
2023/12/24 00:15:34;;;;;;;15.50;6.33;;;;;;;;;;4978569;28;20058;-61
2023/12/24 00:18:05;;;;;;;20.93;8.87;;;;;;;;;;4977672;28;20112;-60
2023/12/24 00:20:46;;;;;;;13.43;5.40;;;;;;;;;;4981041;28;20069;-62
2023/12/24 00:23:13;;;;;;;17.43;7.10;;;;;;;;;;4980216;28;20046;-61
2023/12/24 00:25:47;;;;;;;14.17;5.50;;;;;;;;;;4981194;28;20589;-59
2023/12/24 00:28:14;;;;;;;12.47;5.70;;;;;;;;;;4976185;28;20062;-48
2023/12/24 00:30:41;;;;;;;16.23;5.87;;;;;;;;;;4977920;28;20149;-50
2023/12/24 00:33:15;;;;;;;14.40;6.63;;;;;;;;;;4976714;28;20115;-50
2023/12/24 00:35:42;;;;;;;10.80;5.23;;;;;;;;;;4979512;28;20237;-50
2023/12/24 00:38:16;;;;;;;17.30;6.50;;;;;;;;;;4980806;28;20422;-61
2023/12/24 00:40:43;;;;;;;11.10;4.03;;;;;;;;;;4977494;28;20059;-55
2023/12/24 00:43:10;;;;;;;14.77;4.03;;;;;;;;;;4980582;28;20060;-52
2023/12/24 00:45:44;;;;;;;11.07;5.00;;;;;;;;;;4979820;28;20050;-54
2023/12/24 00:48:12;;;;;;;7.93;4.17;;;;;;;;;;4976204;28;20089;-50
2023/12/24 00:50:46;;;;;;;8.90;4.07;;;;;;;;;;4980111;28;20505;-54
2023/12/24 00:53:13;;;;;;;10.63;4.50;;;;;;;;;;4979868;28;20742;-53
2023/12/24 00:55:43;;;;;;;23.77;9.00;;;;;;;;;;4977612;28;20046;-59
2023/12/24 00:58:17;;;;;;;33.43;12.80;;;;;;;;;;4980030;28;20085;-60
2023/12/24 01:00:46;;;;;;;14.90;6.57;;;;;;;;;;4976935;28;20046;-60
2023/12/24 01:03:20;;;;;;;20.93;7.97;;;;;;;;;;4975826;28;20054;-61
2023/12/24 01:05:47;;;;;;;25.43;8.10;;;;;;;;;;4984431;28;20149;-61
2023/12/24 01:08:15;;;;;;;17.43;6.53;;;;;;;;;;4976263;28;20287;-54
2023/12/24 01:10:49;;;;;;;25.20;7.40;;;;;;;;;;4975916;28;20367;-55
2023/12/24 01:13:19;;;;;;;14.30;5.33;;;;;;;;;;4978528;28;20090;-54
2023/12/24 01:15:54;;;;;;;16.93;5.37;;;;;;;;;;4977553;28;20494;-50
2023/12/24 01:18:21;;;;;;;25.83;9.97;;;;;;;;;;4978483;28;20121;-52
2023/12/24 01:21:07;;;;;;;23.40;9.27;;;;;;;;;;4979177;28;20046;-56
2023/12/24 01:23:41;;;;;;;37.30;13.30;;;;;;;;;;4978895;28;20078;-61
2023/12/24 01:26:16;;;;;;;22.90;10.07;;;;;;;;;;4977000;28;20449;-61
2023/12/24 01:28:43;;;;;;;22.70;8.53;;;;;;;;;;4976753;28;20050;-60
2023/12/24 01:31:10;;;;;;;28.87;10.17;;;;;;;;;;4979428;28;20050;-61
2023/12/24 01:33:45;;;;;;;16.70;7.10;;;;;;;;;;4976312;28;21025;-53
2023/12/24 01:36:12;;;;;;;23.03;7.47;;;;;;;;;;4977467;28;20050;-62
2023/12/24 01:38:46;;;;;;;11.17;5.13;;;;;;;;;;4977799;28;20097;-66
2023/12/24 01:41:13;;;;;;;16.30;6.70;;;;;;;;;;4978415;28;20094;-67
2023/12/24 01:43:41;;;;;;;18.80;6.50;;;;;;;;;;4975060;28;20489;-67
2023/12/24 01:46:19;;;;;;;13.13;5.17;;;;;;;;;;4972934;28;20120;-67
2023/12/24 01:48:48;;;;;;;7.97;3.27;;;;;;;;;;4975141;28;20079;-66
2023/12/24 01:51:22;;;;;;;15.27;6.70;;;;;;;;;;4979065;28;20062;-61
2023/12/24 01:53:50;;;;;;;8.73;2.97;;;;;;;;;;4978540;28;20590;-61
2023/12/24 01:56:19;;;;;;;7.20;2.87;;;;;;;;;;4975022;28;20042;-61
2023/12/24 01:58:53;;;;;;;14.90;5.70;;;;;;;;;;4976429;28;21041;-61
2023/12/24 02:01:20;;;;;;;10.30;3.70;;;;;;;;;;4977891;28;20058;-60
2023/12/24 02:03:55;;;;;;;9.17;4.53;;;;;;;;;;4970095;28;20058;-67
2023/12/24 02:06:24;;;;;;;8.60;2.80;;;;;;;;;;4975400;28;20058;-60
2023/12/24 02:08:52;;;;;;;7.37;3.30;;;;;;;;;;4973692;28;20077;-62
2023/12/24 02:11:26;;;;;;;10.50;3.80;;;;;;;;;;4977123;28;20066;-61
2023/12/24 02:13:53;;;;;;;6.97;3.17;;;;;;;;;;4972844;28;20563;-60
2023/12/24 02:16:30;;;;;;;7.90;3.87;;;;;;;;;;4976697;28;20051;-59
2023/12/24 02:18:57;;;;;;;7.47;3.00;;;;;;;;;;4976202;28;20329;-61
2023/12/24 02:21:25;;;;;;;7.33;3.30;;;;;;;;;;4978054;28;20062;-62
2023/12/24 02:23:59;;;;;;;9.93;4.33;;;;;;;;;;4975787;28;20124;-62
2023/12/24 02:26:38;;;;;;;9.90;3.87;;;;;;;;;;4978202;28;20086;-59
2023/12/24 02:29:26;;;;;;;9.53;4.23;;;;;;;;;;4977836;28;20620;-64
2023/12/24 02:31:58;;;;;;;7.10;3.13;;;;;;;;;;4972794;28;20854;-61
2023/12/24 02:34:33;;;;;;;7.13;3.37;;;;;;;;;;4978063;28;20050;-64
2023/12/24 02:37:01;;;;;;;5.63;2.67;;;;;;;;;;4973729;28;20758;-64
2023/12/24 02:39:28;;;;;;;8.10;3.33;;;;;;;;;;4977783;28;20058;-63
2023/12/24 02:42:02;;;;;;;7.83;4.03;;;;;;;;;;4978335;28;20129;-63
2023/12/24 02:44:29;;;;;;;7.40;3.13;;;;;;;;;;4975026;28;20733;-63
2023/12/24 02:47:03;;;;;;;7.40;3.27;;;;;;;;;;4975558;28;20760;-63
2023/12/24 02:49:30;;;;;;;5.37;2.20;;;;;;;;;;4977463;28;20058;-52
2023/12/24 02:51:57;;;;;;;5.67;2.60;;;;;;;;;;4975275;28;20486;-56
2023/12/24 02:54:32;;;;;;;6.97;2.70;;;;;;;;;;4974733;28;20139;-58
2023/12/24 02:56:59;;;;;;;5.33;2.17;;;;;;;;;;4978967;28;20062;-55
2023/12/24 02:59:28;;;;;;;8.07;2.23;;;;;;;;;;4976366;28;20534;-60
2023/12/24 03:02:02;;;;;;;6.13;2.40;;;;;;;;;;4975464;28;20142;-68
2023/12/24 03:04:29;;;;;;;4.53;2.10;;;;;;;;;;4975919;28;20060;-67
2023/12/24 03:07:03;;;;;;;4.43;1.83;;;;;;;;;;4974655;28;21569;-67
2023/12/24 03:09:30;;;;;;;5.77;2.50;;;;;;;;;;4980546;28;20506;-68
2023/12/24 03:11:57;;;;;;;9.03;2.10;;;;;;;;;;4977980;28;20069;-66
2023/12/24 03:14:31;;;;;;;5.30;2.23;;;;;;;;;;4982017;28;20069;-67
2023/12/24 03:16:58;;;;;;;5.20;2.50;;;;;;;;;;4979323;28;20050;-53
2023/12/24 03:19:45;;;;;;;6.07;2.17;;;;;;;;;;4978739;28;20069;-56
2023/12/24 03:22:20;;;;;;;9.53;2.83;;;;;;;;;;4975052;28;20046;-57
2023/12/24 03:24:54;;;;;;;9.90;4.10;;;;;;;;;;4977220;28;20046;-57
2023/12/24 03:27:28;;;;;;;12.37;5.30;;;;;;;;;;4982298;28;20054;-60
2023/12/24 03:29:55;;;;;;;13.73;5.70;;;;;;;;;;4993907;28;20058;-62
2023/12/24 03:32:29;;;;;;;6.90;3.87;;;;;;;;;;4980093;28;20533;-49
2023/12/24 03:34:56;;;;;;;6.33;3.50;;;;;;;;;;4978361;28;20082;-51
2023/12/24 03:37:23;;;;;;;10.10;4.10;;;;;;;;;;4978746;28;20681;-48
2023/12/24 03:39:57;;;;;;;15.40;5.93;;;;;;;;;;4978296;28;20111;-51
2023/12/24 03:42:24;;;;;;;11.33;5.00;;;;;;;;;;4981493;28;20062;-49
2023/12/24 03:44:58;;;;;;;10.90;4.43;;;;;;;;;;4977451;28;20065;-47
2023/12/24 03:47:25;;;;;;;10.60;4.77;;;;;;;;;;4978743;28;20099;-58
2023/12/24 03:49:52;;;;;;;8.60;3.17;;;;;;;;;;4981221;28;20057;-60
2023/12/24 03:52:27;;;;;;;8.97;4.13;;;;;;;;;;4979649;28;20444;-59
2023/12/24 03:54:54;;;;;;;9.40;4.10;;;;;;;;;;4978273;28;20553;-59
2023/12/24 03:57:28;;;;;;;11.40;4.50;;;;;;;;;;4979777;28;20073;-47
2023/12/24 03:59:55;;;;;;;9.53;3.67;;;;;;;;;;4977947;28;20498;-58
2023/12/24 04:02:24;;;;;;;5.57;3.03;;;;;;;;;;4981675;28;20114;-60
2023/12/24 04:04:58;;;;;;;6.83;3.83;;;;;;;;;;4977530;28;20104;-60
2023/12/24 04:07:25;;;;;;;9.80;4.10;;;;;;;;;;4979602;28;20473;-59
2023/12/24 04:10:00;;;;;;;12.57;5.23;;;;;;;;;;4979212;28;20078;-59
2023/12/24 04:12:27;;;;;;;14.53;4.93;;;;;;;;;;4980935;28;20184;-60
2023/12/24 04:14:54;;;;;;;;;;;;;;;;;;4978755;28;20058;-67
2023/12/24 04:17:28;;;;;;;9.20;4.60;;;;;;;;;;4978538;28;19926;-66
2023/12/24 04:19:55;;;;;;;11.87;4.30;;;;;;;;;;4979531;28;20510;-66
2023/12/24 04:22:36;;;;;;;9.20;4.37;;;;;;;;;;4979159;28;20169;-66
2023/12/24 04:25:03;;;;;;;8.40;3.63;;;;;;;;;;4978123;28;20054;-53
2023/12/24 04:27:37;;;;;;;11.90;4.03;;;;;;;;;;4979050;28;20080;-61
2023/12/24 04:30:04;;;;;;;14.23;4.13;;;;;;;;;;4977921;28;20054;-60
2023/12/24 04:32:32;;;;;;;9.40;3.80;;;;;;;;;;4979461;28;20049;-60
2023/12/24 04:35:06;;;;;;;8.80;4.03;;;;;;;;;;4976422;28;23439;-60
2023/12/24 04:37:34;;;;;;;9.10;3.70;;;;;;;;;;4978801;28;20058;-58
2023/12/24 04:40:01;;;;;;;7.10;3.77;;;;;;;;;;4978209;28;20058;-59
2023/12/24 04:42:35;;;;;;;6.97;4.00;;;;;;;;;;4976377;28;20073;-62
2023/12/24 04:45:02;;;;;;;9.27;4.07;;;;;;;;;;4977932;28;20078;-62
2023/12/24 04:47:36;;;;;;;7.00;3.87;;;;;;;;;;4978410;28;20050;-62
2023/12/24 04:50:03;;;;;;;7.60;3.83;;;;;;;;;;4974972;28;20078;-61
2023/12/24 04:52:37;;;;;;;10.80;3.97;;;;;;;;;;4978300;28;20090;-66
2023/12/24 04:55:05;;;;;;;7.73;3.77;;;;;;;;;;4977762;28;20068;-61
2023/12/24 04:57:33;;;;;;;7.03;3.47;;;;;;;;;;4980090;28;20113;-62
2023/12/24 05:00:07;;;;;;;8.83;3.37;;;;;;;;;;4974013;28;20058;-62
2023/12/24 05:02:34;;;;;;;8.33;4.30;;;;;;;;;;4979122;28;20061;-62
2023/12/24 05:05:10;;;;;;;8.60;3.90;;;;;;;;;;4976263;28;20058;-62
2023/12/24 05:07:38;;;;;;;8.10;3.67;;;;;;;;;;4979817;28;20054;-61
2023/12/24 05:10:05;;;;;;;;;;;;;;;;;;4976723;28;20058;-64
2023/12/24 05:12:39;;;;;;;8.63;3.50;;;;;;;;;;4978186;28;19952;-66
2023/12/24 05:15:07;;;;;;;8.30;3.27;;;;;;;;;;4975792;28;20702;-66
2023/12/24 05:17:34;;;;;;;9.93;3.80;;;;;;;;;;4979845;28;20563;-66
2023/12/24 05:20:15;;;;;;;8.90;3.60;;;;;;;;;;4977564;28;20043;-66
2023/12/24 05:22:48;;;;;;;7.33;3.40;;;;;;;;;;4978917;28;20058;-65
2023/12/24 05:25:22;;;;;;;7.07;3.30;;;;;;;;;;4977389;28;20141;-59
2023/12/24 05:27:49;;;;;;;6.10;3.30;;;;;;;;;;4974819;28;20077;-61
2023/12/24 05:30:16;;;;;;;;;;;;;;;;;;4977798;28;21490;-61
2023/12/24 05:32:50;;;;;;;7.60;3.37;;;;;;;;;;4979082;28;19926;-60
2023/12/24 05:35:18;;;;;;;8.20;3.50;;;;;;;;;;4977067;28;20185;-59
2023/12/24 05:37:52;;;;;;;11.20;3.40;;;;;;;;;;4977745;28;20782;-59
2023/12/24 05:40:19;;;;;;;7.33;3.40;;;;;;;;;;4975646;28;20066;-57
2023/12/24 05:42:46;;;;;;;;;;;;;;;;;;4979409;28;20125;-54
2023/12/24 05:45:20;;;;;;;8.17;3.90;;;;;;;;;;4979284;28;20004;-56
2023/12/24 05:47:47;;;;;;;8.37;3.90;;;;;;;;;;4980304;28;20109;-59
2023/12/24 05:50:15;;;;;;;10.10;4.33;;;;;;;;;;4975952;28;20050;-60
2023/12/24 05:52:52;;;;;;;12.93;4.65;;;;;;;;;;4978291;28;20081;-58
2023/12/24 05:55:20;;;;;;;9.47;3.90;;;;;;;;;;4974618;28;20062;-60
2023/12/24 05:57:54;;;;;;;7.40;3.03;;;;;;;;;;4972861;28;20050;-58
2023/12/24 06:00:21;;;;;;;7.77;3.57;;;;;;;;;;4977508;28;20442;-59
2023/12/24 06:02:49;;;;;;;5.93;3.10;;;;;;;;;;4981100;28;20073;-60
2023/12/24 06:05:24;;;;;;;7.77;3.43;;;;;;;;;;4971945;28;20496;-60
2023/12/24 06:07:51;;;;;;;9.07;3.33;;;;;;;;;;4979665;28;20466;-57
2023/12/24 06:10:18;;;;;;;7.23;3.70;;;;;;;;;;4975370;28;20066;-60
2023/12/24 06:12:54;;;;;;;8.27;3.53;;;;;;;;;;4978166;28;20057;-60
2023/12/24 06:15:21;;;;;;;7.00;3.30;;;;;;;;;;4971122;28;20049;-59
2023/12/24 06:17:55;;;;;;;9.37;3.47;;;;;;;;;;4978992;28;20050;-51
2023/12/24 06:20:31;;;;;;;6.37;3.43;;;;;;;;;;4974080;28;20058;-60
2023/12/24 06:23:05;;;;;;;6.43;3.10;;;;;;;;;;4979531;28;20133;-49
2023/12/24 06:25:34;;;;;;;6.83;2.80;;;;;;;;;;4976879;28;20059;-50
2023/12/24 06:28:01;;;;;;;10.13;2.93;;;;;;;;;;4978150;28;20061;-48
2023/12/24 06:30:35;;;;;;;5.90;2.67;;;;;;;;;;4975306;28;20521;-49
2023/12/24 06:33:02;;;;;;;9.93;3.50;;;;;;;;;;4976987;28;20804;-50
2023/12/24 06:35:36;;;;;;;5.83;2.30;;;;;;;;;;4975523;28;20417;-51
2023/12/24 06:38:03;;;;;;;6.20;3.03;;;;;;;;;;4976534;28;20096;-48
2023/12/24 06:40:31;;;;;;;5.07;2.57;;;;;;;;;;4975890;28;20066;-49
2023/12/24 06:43:06;;;;;;;6.87;2.40;;;;;;;;;;4977277;28;20078;-53
2023/12/24 06:45:34;;;;;;;5.50;2.60;;;;;;;;;;4979605;28;20445;-52
2023/12/24 06:48:08;;;;;;;5.60;2.60;;;;;;;;;;4979001;28;20204;-56
2023/12/24 06:50:35;;;;;;;5.80;2.63;;;;;;;;;;4979868;28;20050;-61
2023/12/24 06:53:03;;;;;;;;;;;;;;;;;;4983490;28;20081;-61
2023/12/24 06:55:37;;;;;;;3.77;2.03;;;;;;;;;;4981218;28;19933;-60
2023/12/24 06:58:06;;;;;;;7.67;2.90;;;;;;;;;;4981491;28;20502;-60
2023/12/24 07:00:40;;;;;;;8.23;2.60;;;;;;;;;;4982135;28;20552;-60
2023/12/24 07:03:07;;;;;;;10.10;2.57;;;;;;;;;;4981605;28;20112;-62
2023/12/24 07:05:35;;;;;;;;;;;;;;;;;;4981414;28;20137;-59
2023/12/24 07:08:09;;;;;;;8.00;2.47;;;;;;;;;;4979883;28;19925;-59
2023/12/24 07:10:36;;;;;;;5.13;2.80;;;;;;;;;;4980946;28;20392;-63
2023/12/24 07:13:11;;;;;;;7.47;2.63;;;;;;;;;;4979059;28;20124;-59
2023/12/24 07:15:38;;;;;;;;;;;;;;;;;;4982476;28;20100;-63
2023/12/24 07:18:06;;;;;;;6.57;2.93;;;;;;;;;;4980172;28;19973;-62
2023/12/24 07:20:54;;;;;;;4.80;2.53;;;;;;;;;;4976786;28;20050;-63
2023/12/24 07:23:28;;;;;;;4.95;2.97;;;;;;;;;;4980281;28;20058;-62
2023/12/24 07:26:02;;;;;;;7.47;2.60;;;;;;;;;;4981671;28;20054;-62
2023/12/24 07:28:29;;;;;;;4.60;2.70;;;;;;;;;;4978849;28;20057;-62
2023/12/24 07:30:56;;;;;;;5.37;2.53;;;;;;;;;;4980731;28;20105;-62
2023/12/24 07:33:30;;;;;;;7.37;2.73;;;;;;;;;;4982047;28;20054;-60
2023/12/24 07:35:58;;;;;;;5.37;2.10;;;;;;;;;;4977902;28;20046;-58
2023/12/24 07:38:29;;;;;;;;;;;;;;;;;;4977447;28;20054;-58
2023/12/24 07:41:03;;;;;;;3.47;1.97;;;;;;;;;;4979527;28;19937;-59
2023/12/24 07:43:31;;;;;;;6.33;2.70;;;;;;;;;;4978921;28;20313;-49
2023/12/24 07:46:05;;;;;;;4.87;2.50;;;;;;;;;;4979399;28;20062;-54
2023/12/24 07:48:33;;;;;;;3.93;2.60;;;;;;;;;;4980060;28;20097;-60
2023/12/24 07:51:00;;;;;;;4.27;2.47;;;;;;;;;;4979618;28;20058;-62
2023/12/24 07:53:34;;;;;;;5.07;2.83;;;;;;;;;;4980336;28;20108;-62
2023/12/24 07:56:01;;;;;;;6.77;2.47;;;;;;;;;;4977460;28;20078;-61
2023/12/24 07:58:36;;;;;;;7.77;3.00;;;;;;;;;;4977239;28;20058;-61
2023/12/24 08:01:04;;;;;;;9.77;2.60;;;;;;;;;;4979168;28;20296;-61
2023/12/24 08:03:32;;;;;;;11.53;3.00;;;;;;;;;;4979212;28;20061;-66
2023/12/24 08:06:06;;;;;;;5.50;2.83;;;;;;;;;;4978873;28;20138;-66
2023/12/24 08:08:41;;;;;;;5.73;3.13;;;;;;;;;;4981255;28;20062;-67
2023/12/24 08:11:15;;;;;;;5.80;3.10;;;;;;;;;;4977841;28;20050;-59
2023/12/24 08:13:45;;;;;;;4.90;2.60;;;;;;;;;;4976228;28;20058;-61
2023/12/24 08:16:12;;;;;;;;;;;;;;;;;;4977191;28;20209;-57
2023/12/24 08:18:46;;;;;;;4.33;2.40;;;;;;;;;;4980842;28;19992;-58
2023/12/24 08:21:21;;;;;;;5.00;2.63;;;;;;;;;;4979946;28;20046;-55
2023/12/24 08:24:02;;;;;;;5.07;2.40;;;;;;;;;;4978514;28;20116;-58
2023/12/24 08:26:29;;;;;;;5.57;2.70;;;;;;;;;;4978790;28;20113;-57
2023/12/24 08:29:03;;;;;;;4.70;2.43;;;;;;;;;;4977678;28;20144;-57
2023/12/24 08:31:30;;;;;;;;;;;;;;;;;;4977202;28;20054;-54
2023/12/24 08:33:57;;;;;;;7.80;2.57;;;;;;;;;;4978794;28;19926;-55
2023/12/24 08:36:32;;;;;;;7.40;2.40;;;;;;;;;;4978317;28;20065;-55
2023/12/24 08:38:59;;;;;;;;;;;;;;;;;;4980093;28;20057;-54
2023/12/24 08:41:33;;;;;;;8.03;2.50;;;;;;;;;;4979951;28;19930;-60
2023/12/24 08:44:00;;;;;;;6.47;3.47;;;;;;;;;;4975558;28;20528;-61
2023/12/24 08:46:27;;;;;;;;;;;;;;;;;;4978831;28;20066;-62
2023/12/24 08:49:01;;;;;;;4.23;2.83;;;;;;;;;;4977709;28;19987;-62
2023/12/24 08:51:28;;;;;;;6.17;2.90;;;;;;;;;;4977855;28;20062;-62
2023/12/24 08:53:56;;;;;;;8.63;3.92;;;;;;;;;;4979092;28;20054;-63
2023/12/24 08:56:34;;;;;;;8.83;4.27;;;;;;;;;;4975472;28;20530;-61
2023/12/24 08:59:01;;;;;;;9.97;4.00;;;;;;;;;;4976084;28;20062;-61
2023/12/24 09:01:39;;;;;;;15.07;5.80;;;;;;;;;;4975356;28;20505;-60
2023/12/24 09:04:06;;;;;;;15.83;6.73;;;;;;;;;;4977219;28;20282;-63
2023/12/24 09:06:34;;;;;;;12.93;5.90;;;;;;;;;;4978964;28;20054;-62
2023/12/24 09:09:08;;;;;;;13.53;5.80;;;;;;;;;;4979462;28;20605;-49
2023/12/24 09:11:36;;;;;;;12.37;4.67;;;;;;;;;;4978510;28;20054;-48
2023/12/24 09:14:10;;;;;;;7.22;4.20;;;;;;;;;;4976439;28;20173;-52
2023/12/24 09:16:37;;;;;;;7.82;4.40;;;;;;;;;;4972553;28;20077;-50
2023/12/24 09:19:04;;;;;;;6.63;4.03;;;;;;;;;;4979584;28;20076;-47
2023/12/24 09:21:46;;;;;;;13.50;5.03;;;;;;;;;;4974658;28;20141;-46
2023/12/24 09:24:13;;;;;;;8.98;4.30;;;;;;;;;;4979276;28;20365;-49
2023/12/24 09:26:47;;;;;;;10.15;4.82;;;;;;;;;;4980082;28;20058;-59
2023/12/24 09:29:14;;;;;;;;;;;;;;;;;;4975610;28;20077;-57
2023/12/24 09:31:41;;;;;;;6.50;3.37;;;;;;;;;;4975781;28;19921;-58
2023/12/24 09:34:15;;;;;;;4.38;2.03;;;;;;;;;;4977598;28;20146;-57
2023/12/24 09:36:42;;;;;;;4.97;2.55;;;;;;;;;;4979347;28;20053;-48
2023/12/24 09:39:16;;;;;;;8.00;3.65;;;;;;;;;;4974699;28;20635;-60
2023/12/24 09:41:43;;;;;;;8.00;3.67;;;;;;;;;;4979197;28;20105;-66
2023/12/24 09:44:10;;;;;;;;;;;;;;;;;;4974798;28;20558;-67
2023/12/24 09:46:44;;;;;;;3.40;2.10;;;;;;;;;;4977859;28;20306;-65
2023/12/24 09:49:11;;;;;;;;;;;;;;;;;;4973285;28;20050;-66
2023/12/24 09:51:45;;;;;;;4.75;1.60;;;;;;;;;;4976533;28;20023;-66
2023/12/24 09:54:14;;;;;;;6.43;2.13;;;;;;;;;;4976646;28;20050;-66
2023/12/24 09:56:41;;;;;;;3.92;2.33;;;;;;;;;;4979389;28;20058;-61
2023/12/24 09:59:15;;;;;;;9.57;2.67;;;;;;;;;;4974960;28;20046;-60
2023/12/24 10:01:44;;;;;;;10.32;1.95;;;;;;;;;;4975339;28;20498;-61
2023/12/24 10:04:18;;;;;;;5.65;2.33;;;;;;;;;;4975835;28;20050;-61
2023/12/24 10:06:45;;;;;;;;;;;;;;;;;;4981164;28;20124;-52
2023/12/24 10:09:12;;;;;;;3.72;1.63;;;;;;;;;;4976885;28;19925;-66
2023/12/24 10:11:46;;;;;;;3.72;1.70;;;;;;;;;;4975008;28;20132;-66
2023/12/24 10:14:15;;;;;;;4.43;1.45;;;;;;;;;;4977416;28;20057;-66
2023/12/24 10:16:55;;;;;;;7.88;2.20;;;;;;;;;;4974513;28;20062;-66
2023/12/24 10:19:23;;;;;;;5.97;2.40;;;;;;;;;;4986314;28;20058;-66
2023/12/24 10:22:07;;;;;;;7.97;2.53;;;;;;;;;;4980161;28;20062;-66
2023/12/24 10:24:35;;;;;;;4.13;1.90;;;;;;;;;;4985504;28;20058;-61
2023/12/24 10:27:10;;;;;;;4.38;1.85;;;;;;;;;;4977661;28;21006;-60
2023/12/24 10:29:41;;;;;;;9.15;2.95;;;;;;;;;;4978475;28;20062;-60
2023/12/24 10:32:10;;;;;;;8.35;3.00;;;;;;;;;;4980581;28;20047;-58
2023/12/24 10:34:44;;;;;;;8.82;2.30;;;;;;;;;;4984959;28;20055;-48
2023/12/24 10:37:21;;;;;;;8.65;3.05;;;;;;;;;;4979891;28;20409;-46
2023/12/24 10:40:16;;;;;;;17.52;3.22;;;;;;;;;;4981175;28;20046;-47
2023/12/24 10:42:43;;;;;;;13.70;2.63;;;;;;;;;;4979167;28;20109;-47
2023/12/24 10:45:17;;;;;;;11.77;2.70;;;;;;;;;;4980661;28;20116;-48
2023/12/24 10:47:44;;;;;;;16.10;2.53;;;;;;;;;;4982286;28;20819;-49
2023/12/24 10:50:20;;;;;;;16.20;3.10;;;;;;;;;;4980265;28;20053;-47
2023/12/24 10:52:48;;;;;;;19.88;3.33;;;;;;;;;;4980362;28;20053;-56
2023/12/24 10:55:16;;;;;;;12.80;3.25;;;;;;;;;;4980801;28;20055;-53
2023/12/24 10:58:01;;;;;;;13.50;4.15;;;;;;;;;;4979176;28;20129;-53
2023/12/24 11:00:29;;;;;;;8.95;2.60;;;;;;;;;;4978993;28;20517;-55
2023/12/24 11:03:03;;;;;;;10.25;3.20;;;;;;;;;;4978270;28;20136;-64
2023/12/24 11:05:44;;;;;;;12.27;3.47;;;;;;;;;;4980173;28;20509;-59
2023/12/24 11:08:21;;;;;;;14.07;3.53;;;;;;;;;;4979361;28;20058;-58
2023/12/24 11:10:55;;;;;;;12.75;3.50;;;;;;;;;;4979277;28;20313;-59
2023/12/24 11:13:33;;;;;;;18.00;3.17;;;;;;;;;;4979579;28;20280;-59
2023/12/24 11:16:01;;;;;;;14.07;3.33;;;;;;;;;;4978025;28;20062;-58
2023/12/24 11:18:48;;;;;;;22.02;3.85;;;;;;;;;;4981357;28;20418;-59
2023/12/24 11:21:22;;;;;;;12.93;3.50;;;;;;;;;;4976336;28;20081;-59
2023/12/24 11:24:15;;;;;;;16.40;3.67;;;;;;;;;;4983772;28;20120;-58
2023/12/24 11:26:52;;;;;;;23.70;3.55;;;;;;;;;;4980201;28;20078;-59
2023/12/24 11:29:41;;;;;;;17.08;4.35;;;;;;;;;;4979152;28;20066;-59
2023/12/24 11:32:24;;;;;;;18.48;3.80;;;;;;;;;;4977028;28;20763;-51
2023/12/24 11:34:59;;;;;;;18.95;3.08;;;;;;;;;;4978895;28;20050;-55
2023/12/24 11:37:30;;;;;;;12.95;2.60;;;;;;;;;;4976353;28;20495;-54
2023/12/24 11:40:04;;;;;;;10.60;3.80;;;;;;;;;;4980316;28;20493;-56
2023/12/24 11:42:39;;;;;;;8.55;3.55;;;;;;;;;;4980198;28;20445;-56
2023/12/24 11:45:07;;;;;;;12.90;2.83;;;;;;;;;;4980389;28;20499;-57
2023/12/24 11:47:41;;;;;;;9.00;2.38;;;;;;;;;;4981202;28;20137;-56
2023/12/24 11:50:09;;;;;;;11.50;3.30;;;;;;;;;;4977127;28;20062;-48
2023/12/24 11:52:47;;;;;;;8.40;2.60;;;;;;;;;;4980037;28;20156;-53
2023/12/24 11:55:15;;;;;;;10.35;2.78;;;;;;;;;;4977081;28;20070;-51
2023/12/24 11:57:52;;;;;;;11.43;2.10;;;;;;;;;;4981089;28;20074;-53
2023/12/24 12:00:26;;;;;;;6.32;2.08;;;;;;;;;;4976532;28;20089;-49
2023/12/24 12:03:00;;;;;;;8.63;2.38;;;;;;;;;;4978716;28;20113;-58
2023/12/24 12:05:29;;;;;;;7.13;2.08;;;;;;;;;;4976853;28;20053;-58
2023/12/24 12:07:57;;;;;;;10.82;2.17;;;;;;;;;;4977119;28;20051;-56
2023/12/24 12:10:31;;;;;;;8.20;1.92;;;;;;;;;;4977586;28;20054;-55
2023/12/24 12:12:58;;;;;;;5.55;2.28;;;;;;;;;;4979831;28;20058;-57
2023/12/24 12:15:32;;;;;;;5.88;1.70;;;;;;;;;;4974760;28;20338;-58
2023/12/24 12:17:59;;;;;;;;;;;;;;;;;;4982447;28;20046;-57
2023/12/24 12:20:27;;;;;;;2.85;1.50;;;;;;;;;;4975641;28;20270;-59
2023/12/24 12:23:08;;;;;;;10.60;1.88;;;;;;;;;;4978227;28;20508;-59
2023/12/24 12:25:35;;;;;;;3.30;2.00;;;;;;;;;;4976493;28;20058;-58
2023/12/24 12:28:10;;;;;;;5.10;1.55;;;;;;;;;;4976286;28;20125;-59
2023/12/24 12:30:37;;;;;;;4.60;1.85;;;;;;;;;;4979053;28;20062;-56
2023/12/24 12:33:04;;;;;;;;;;;;;;;;;;4981770;28;20078;-58
2023/12/24 12:35:38;;;;;;;5.00;1.63;;;;;;;;;;4975670;28;19988;-57
2023/12/24 12:38:06;;;;;;;1.80;1.35;;;;;;;;;;4979599;28;20189;-59
2023/12/24 12:40:40;;;;;;;5.88;2.10;;;;;;;;;;4974398;28;20054;-56
2023/12/24 12:43:15;;;;;;;9.00;1.90;;;;;;;;;;4977398;28;20062;-58
2023/12/24 12:45:49;;;;;;;5.30;2.00;;;;;;;;;;4977388;28;20058;-45
2023/12/24 12:48:19;;;;;;;4.22;1.73;;;;;;;;;;4980836;28;20061;-46
2023/12/24 12:50:47;;;;;;;7.47;2.25;;;;;;;;;;4975476;28;20505;-45
2023/12/24 12:53:24;;;;;;;11.88;2.30;;;;;;;;;;4978118;28;20054;-45
2023/12/24 12:55:59;;;;;;;5.38;2.05;;;;;;;;;;4977700;28;20065;-61
2023/12/24 12:58:33;;;;;;;1.88;1.40;;;;;;;;;;4978077;28;20054;-60
2023/12/24 13:01:00;;;;;;;5.47;2.00;;;;;;;;;;4980155;28;20505;-46
2023/12/24 13:03:28;;;;;;;2.85;1.67;;;;;;;;;;4973855;28;20082;-48
2023/12/24 13:06:11;;;;;;;5.88;2.28;;;;;;;;;;4982515;28;20117;-46
2023/12/24 13:08:45;;;;;;;10.10;2.55;;;;;;;;;;4977562;28;20054;-47
2023/12/24 13:11:12;;;;;;;1.98;1.42;;;;;;;;;;4975191;28;20754;-47
2023/12/24 13:13:39;;;;;;;;;;;;;;;;;;4979679;28;20061;-46
2023/12/24 13:16:13;;;;;;;7.40;2.65;;;;;;;;;;4979369;28;20468;-49
2023/12/24 13:18:41;;;;;;;9.90;2.20;;;;;;;;;;4976482;28;20148;-49
2023/12/24 13:21:22;;;;;;;3.30;1.77;;;;;;;;;;4976393;28;20050;-50
2023/12/24 13:23:55;;;;;;;4.68;1.55;;;;;;;;;;4977070;28;20054;-50
2023/12/24 13:26:29;;;;;;;4.97;1.67;;;;;;;;;;4977780;28;20514;-46
2023/12/24 13:28:56;;;;;;;;;;;;;;;;;;4977711;28;20132;-46
2023/12/24 13:31:26;;;;;;;2.22;1.05;;;;;;;;;;4979774;28;19976;-47
2023/12/24 13:34:00;;;;;;;4.03;1.58;;;;;;;;;;4976709;28;20050;-45
2023/12/24 13:36:34;;;;;;;2.25;0.90;;;;;;;;;;4977450;28;20136;-51
2023/12/24 13:39:01;;;;;;;2.40;1.13;;;;;;;;;;4979063;28;20141;-45
2023/12/24 13:41:28;;;;;;;6.20;1.23;;;;;;;;;;4976218;28;20066;-50
2023/12/24 13:44:02;;;;;;;3.25;1.15;;;;;;;;;;4978240;28;20042;-48
2023/12/24 13:46:30;;;;;;;2.17;1.23;;;;;;;;;;4977968;28;20469;-48
2023/12/24 13:48:57;;;;;;;2.05;1.00;;;;;;;;;;4976384;28;20489;-50
2023/12/24 13:51:31;;;;;;;1.77;1.20;;;;;;;;;;4977799;28;20058;-47
2023/12/24 13:53:59;;;;;;;1.42;0.80;;;;;;;;;;4974910;28;20055;-46
2023/12/24 13:56:33;;;;;;;1.80;1.00;;;;;;;;;;4976752;28;20113;-59
2023/12/24 13:59:00;;;;;;;;;;;;;;;;;;4980383;28;20137;-60
2023/12/24 14:01:29;;;;;;;2.30;0.98;;;;;;;;;;4976142;28;20047;-59
2023/12/24 14:04:04;;;;;;;3.53;1.40;;;;;;;;;;4973559;28;20198;-60
2023/12/24 14:06:31;;;;;;;11.80;4.25;;;;;;;;;;4974111;28;20066;-59
2023/12/24 14:09:05;;;;;;;2.88;1.40;;;;;;;;;;4977739;28;20056;-60
2023/12/24 14:11:32;;;;;;;1.45;1.20;;;;;;;;;;4975317;28;20402;-55
2023/12/24 14:14:07;;;;;;;2.08;1.75;;;;;;;;;;4977981;28;20156;-53
2023/12/24 14:16:34;;;;;;;1.30;1.20;;;;;;;;;;4975759;28;20069;-56
2023/12/24 14:19:08;;;;;;;1.15;1.08;;;;;;;;;;4976200;28;20061;-54
2023/12/24 14:21:42;;;;;;;1.98;1.27;;;;;;;;;;4974492;28;20058;-55
2023/12/24 14:24:23;;;;;;;2.40;1.30;;;;;;;;;;4976671;28;20149;-64
2023/12/24 14:26:50;;;;;;;0.45;0.45;;;;;;;;;;4975982;28;20104;-61
2023/12/24 14:29:24;;;;;;;0.55;0.52;;;;;;;;;;4978624;28;20477;-61
2023/12/24 14:31:58;;;;;;;0.80;0.80;;;;;;;;;;4975815;28;20062;-60
2023/12/24 14:34:25;;;;;;;;;;;;;;;;;;4980221;28;20540;-61
2023/12/24 14:36:59;;;;;;;1.73;0.80;;;;;;;;;;4977404;28;19922;-61
2023/12/24 14:39:30;;;;;;;0.50;0.50;;;;;;;;;;4978225;28;20065;-61
2023/12/24 14:42:00;;;;;;;1.08;0.68;;;;;;;;;;4974390;28;20058;-51
2023/12/24 14:44:34;;;;;;;0.98;0.77;;;;;;;;;;4974774;28;20050;-54
2023/12/24 14:47:01;;;;;;;0.85;0.85;;;;;;;;;;4978900;28;20408;-49
2023/12/24 14:49:29;;;;;;;;;;;;;;;;;;4976253;28;20668;-51
2023/12/24 14:52:03;;;;;;;0.60;0.60;;;;;;;;;;4976885;28;20663;-61
2023/12/24 14:54:30;;;;;;;0.57;0.57;;;;;;;;;;4975596;28;20061;-64
2023/12/24 14:57:04;;;;;;;0.82;0.50;;;;;;;;;;4976107;28;20109;-64
2023/12/24 14:59:31;;;;;;;0.55;0.50;;;;;;;;;;4975890;28;20121;-65
2023/12/24 15:02:00;;;;;;;0.68;0.60;;;;;;;;;;4976670;28;20061;-65
2023/12/24 15:04:34;;;;;;;1.35;0.88;;;;;;;;;;4978851;28;20053;-65
2023/12/24 15:07:01;;;;;;;0.50;0.50;;;;;;;;;;4980986;28;20082;-66
2023/12/24 15:09:35;;;;;;;0.63;0.60;;;;;;;;;;4981136;28;20051;-62